createdAt,value
2017-12-13T00:00:14.534Z,1009.13
2017-12-13T00:00:55.043Z,1009.11
2017-12-13T00:01:35.562Z,1009.09
2017-12-13T00:02:16.072Z,1009.07
2017-12-13T00:02:56.603Z,1008.98
2017-12-13T00:03:37.130Z,1008.99
2017-12-13T00:04:17.670Z,1008.92
2017-12-13T00:04:58.186Z,1008.94
2017-12-13T00:05:38.686Z,1008.96
2017-12-13T00:06:19.276Z,1008.89
2017-12-13T00:06:59.791Z,1008.9
2017-12-13T00:07:40.339Z,1008.82
2017-12-13T00:08:20.859Z,1008.9
2017-12-13T00:09:01.388Z,1008.92
2017-12-13T00:09:41.907Z,1008.89
2017-12-13T00:10:22.437Z,1008.91
2017-12-13T00:11:02.958Z,1008.88
2017-12-13T00:11:43.476Z,1008.89
2017-12-13T00:12:23.996Z,1008.85
2017-12-13T00:13:04.524Z,1008.88
2017-12-13T00:13:45.048Z,1008.88
2017-12-13T00:14:25.569Z,1008.83
2017-12-13T00:15:06.085Z,1008.85
2017-12-13T00:15:46.598Z,1008.84
2017-12-13T00:16:27.119Z,1008.82
2017-12-13T00:17:07.661Z,1008.82
2017-12-13T00:17:48.186Z,1008.81
2017-12-13T00:18:28.703Z,1008.79
2017-12-13T00:19:09.208Z,1008.81
2017-12-13T00:19:49.731Z,1008.79
2017-12-13T00:20:30.269Z,1008.78
2017-12-13T00:21:10.776Z,1008.77
2017-12-13T00:21:51.304Z,1008.75
2017-12-13T00:22:31.833Z,1008.76
2017-12-13T00:23:12.369Z,1008.77
2017-12-13T00:23:52.899Z,1008.76
2017-12-13T00:24:33.412Z,1008.72
2017-12-13T00:25:13.931Z,1008.69
2017-12-13T00:25:54.451Z,1008.67
2017-12-13T00:26:34.973Z,1008.68
2017-12-13T00:27:15.489Z,1008.64
2017-12-13T00:27:56.018Z,1008.62
2017-12-13T00:28:36.564Z,1008.63
2017-12-13T00:29:17.087Z,1008.6
2017-12-13T00:29:57.599Z,1008.64
2017-12-13T00:30:38.126Z,1008.65
2017-12-13T00:31:18.643Z,1008.62
2017-12-13T00:31:59.172Z,1008.63
2017-12-13T00:32:39.695Z,1008.63
2017-12-13T00:33:20.225Z,1008.6
2017-12-13T00:34:00.764Z,1008.61
2017-12-13T00:34:41.268Z,1008.59
2017-12-13T00:35:21.798Z,1008.62
2017-12-13T00:36:02.317Z,1008.57
2017-12-13T00:36:42.850Z,1008.56
2017-12-13T00:37:23.351Z,1008.53
2017-12-13T00:38:03.877Z,1008.54
2017-12-13T00:38:44.412Z,1008.53
2017-12-13T00:39:24.922Z,1008.52
2017-12-13T00:40:05.450Z,1008.51
2017-12-13T00:40:45.977Z,1008.48
2017-12-13T00:41:26.503Z,1008.5
2017-12-13T00:42:07.023Z,1008.51
2017-12-13T00:42:47.549Z,1008.49
2017-12-13T00:43:28.077Z,1008.49
2017-12-13T00:44:08.607Z,1008.48
2017-12-13T00:44:49.140Z,1008.47
2017-12-13T00:45:29.658Z,1008.49
2017-12-13T00:46:10.183Z,1008.49
2017-12-13T00:46:50.712Z,1008.46
2017-12-13T00:47:31.223Z,1008.45
2017-12-13T00:48:11.756Z,1008.42
2017-12-13T00:48:52.260Z,1008.45
2017-12-13T00:49:32.792Z,1008.41
2017-12-13T00:50:13.300Z,1008.38
2017-12-13T00:50:53.828Z,1008.35
2017-12-13T00:51:34.351Z,1008.36
2017-12-13T00:52:14.856Z,1008.38
2017-12-13T00:52:55.379Z,1008.36
2017-12-13T00:53:35.915Z,1008.37
2017-12-13T00:54:16.458Z,1008.39
2017-12-13T00:54:56.985Z,1008.38
2017-12-13T00:55:37.506Z,1008.37
2017-12-13T00:56:18.034Z,1008.38
2017-12-13T00:56:58.563Z,1008.39
2017-12-13T00:57:39.119Z,1008.39
2017-12-13T00:58:19.646Z,1008.37
2017-12-13T00:59:00.170Z,1008.34
2017-12-13T00:59:40.682Z,1008.36
2017-12-13T01:00:21.257Z,1008.39
2017-12-13T01:01:01.784Z,1008.37
2017-12-13T01:01:42.312Z,1008.36
2017-12-13T01:02:22.831Z,1008.33
2017-12-13T01:03:03.346Z,1008.31
2017-12-13T01:03:43.865Z,1008.29
2017-12-13T01:04:24.374Z,1008.26
2017-12-13T01:05:04.914Z,1008.25
2017-12-13T01:05:45.430Z,1008.24
2017-12-13T01:06:25.958Z,1008.24
2017-12-13T01:07:06.468Z,1008.23
2017-12-13T01:07:46.996Z,1008.21
2017-12-13T01:08:27.545Z,1008.2
2017-12-13T01:09:08.060Z,1008.26
2017-12-13T01:09:48.574Z,1008.25
2017-12-13T01:10:29.099Z,1008.24
2017-12-13T01:11:09.627Z,1008.27
2017-12-13T01:11:50.165Z,1008.26
2017-12-13T01:12:30.704Z,1008.24
2017-12-13T01:13:11.212Z,1008.24
2017-12-13T01:13:51.743Z,1008.29
2017-12-13T01:14:32.278Z,1008.28
2017-12-13T01:15:12.802Z,1008.31
2017-12-13T01:15:53.311Z,1008.27
2017-12-13T01:16:33.844Z,1008.25
2017-12-13T01:17:14.377Z,1008.31
2017-12-13T01:17:54.911Z,1008.25
2017-12-13T01:18:35.436Z,1008.22
2017-12-13T01:19:15.957Z,1008.24
2017-12-13T01:19:56.476Z,1008.24
2017-12-13T01:20:36.987Z,1008.27
2017-12-13T01:21:17.502Z,1008.25
2017-12-13T01:21:58.024Z,1008.26
2017-12-13T01:22:38.554Z,1008.24
2017-12-13T01:23:19.087Z,1008.23
2017-12-13T01:23:59.595Z,1008.22
2017-12-13T01:24:40.121Z,1008.22
2017-12-13T01:25:20.652Z,1008.19
2017-12-13T01:26:01.174Z,1008.18
2017-12-13T01:26:41.696Z,1008.16
2017-12-13T01:27:22.233Z,1008.17
2017-12-13T01:28:02.744Z,1008.19
2017-12-13T01:28:43.259Z,1008.15
2017-12-13T01:29:23.812Z,1008.14
2017-12-13T01:30:04.347Z,1008.14
2017-12-13T01:30:44.859Z,1008.15
2017-12-13T01:31:25.373Z,1008.16
2017-12-13T01:32:05.905Z,1008.12
2017-12-13T01:32:46.431Z,1008.15
2017-12-13T01:33:26.963Z,1008.16
2017-12-13T01:34:07.484Z,1008.17
2017-12-13T01:34:48.079Z,1008.17
2017-12-13T01:35:28.613Z,1008.17
2017-12-13T01:36:09.137Z,1008.21
2017-12-13T01:36:49.665Z,1008.17
2017-12-13T01:37:30.186Z,1008.22
2017-12-13T01:38:10.711Z,1008.19
2017-12-13T01:38:51.246Z,1008.19
2017-12-13T01:39:31.757Z,1008.2
2017-12-13T01:40:12.286Z,1008.19
2017-12-13T01:40:52.816Z,1008.19
2017-12-13T01:41:33.338Z,1008.22
2017-12-13T01:42:13.866Z,1008.22
2017-12-13T01:42:54.406Z,1008.27
2017-12-13T01:43:34.954Z,1008.25
2017-12-13T01:44:15.475Z,1008.25
2017-12-13T01:44:56.017Z,1008.26
2017-12-13T01:45:36.534Z,1008.23
2017-12-13T01:46:17.043Z,1008.22
2017-12-13T01:46:57.571Z,1008.19
2017-12-13T01:47:38.102Z,1008.16
2017-12-13T01:48:18.637Z,1008.16
2017-12-13T01:48:59.182Z,1008.13
2017-12-13T01:49:39.711Z,1008.16
2017-12-13T01:50:20.265Z,1008.13
2017-12-13T01:51:00.792Z,1008.13
2017-12-13T01:51:41.321Z,1008.13
2017-12-13T01:52:21.855Z,1008.1
2017-12-13T01:53:02.366Z,1008.1
2017-12-13T01:53:42.899Z,1008.04
2017-12-13T01:54:23.426Z,1008.03
2017-12-13T01:55:03.956Z,1008.07
2017-12-13T01:55:44.484Z,1008.07
2017-12-13T01:56:25.012Z,1008.09
2017-12-13T01:57:05.556Z,1008.11
2017-12-13T01:57:46.096Z,1008.08
2017-12-13T01:58:26.610Z,1008.09
2017-12-13T01:59:07.128Z,1008.14
2017-12-13T01:59:47.633Z,1008.09
2017-12-13T02:00:28.150Z,1008.06
2017-12-13T02:01:08.670Z,1008.04
2017-12-13T02:01:49.182Z,1008.05
2017-12-13T02:02:29.695Z,1008.04
2017-12-13T02:03:10.238Z,1008.04
2017-12-13T02:03:50.729Z,1008.04
2017-12-13T02:04:31.246Z,1008.02
2017-12-13T02:05:11.780Z,1008.03
2017-12-13T02:05:52.300Z,1007.99
2017-12-13T02:08:06.475Z,1007.88
2017-12-13T02:08:47.011Z,1007.89
2017-12-13T02:09:27.525Z,1007.86
2017-12-13T02:10:08.025Z,1007.86
2017-12-13T02:10:48.546Z,1007.85
2017-12-13T02:11:29.038Z,1007.86
2017-12-13T02:12:09.557Z,1007.85
2017-12-13T02:12:50.086Z,1007.86
2017-12-13T02:13:30.586Z,1007.9
2017-12-13T02:14:11.100Z,1007.87
2017-12-13T02:14:51.643Z,1007.89
2017-12-13T02:15:32.107Z,1007.87
2017-12-13T02:16:12.604Z,1007.86
2017-12-13T02:16:53.120Z,1007.78
2017-12-13T02:17:33.625Z,1007.81
2017-12-13T02:18:14.146Z,1007.68
2017-12-13T02:18:54.657Z,1007.67
2017-12-13T02:19:35.181Z,1007.6
2017-12-13T02:20:15.713Z,1007.61
2017-12-13T02:20:56.217Z,1007.58
2017-12-13T02:21:36.697Z,1007.56
2017-12-13T02:22:17.217Z,1007.55
2017-12-13T02:22:57.715Z,1007.57
2017-12-13T02:23:38.227Z,1007.58
2017-12-13T02:24:18.731Z,1007.57
2017-12-13T02:24:59.244Z,1007.63
2017-12-13T02:25:39.750Z,1007.66
2017-12-13T02:26:20.259Z,1007.68
2017-12-13T02:27:00.769Z,1007.65
2017-12-13T02:27:41.279Z,1007.63
2017-12-13T02:28:21.788Z,1007.63
2017-12-13T02:29:02.295Z,1007.63
2017-12-13T02:29:42.810Z,1007.55
2017-12-13T02:30:23.319Z,1007.55
2017-12-13T02:31:03.812Z,1007.55
2017-12-13T02:31:44.341Z,1007.58
2017-12-13T02:32:24.838Z,1007.62
2017-12-13T02:33:05.337Z,1007.64
2017-12-13T02:33:45.848Z,1007.57
2017-12-13T02:34:26.380Z,1007.55
2017-12-13T02:35:06.898Z,1007.57
2017-12-13T02:35:47.381Z,1007.57
2017-12-13T02:36:27.891Z,1007.51
2017-12-13T02:37:08.398Z,1007.48
2017-12-13T02:37:48.919Z,1007.5
2017-12-13T02:38:29.438Z,1007.51
2017-12-13T02:39:09.946Z,1007.59
2017-12-13T02:39:50.449Z,1007.58
2017-12-13T02:40:31.041Z,1007.55
2017-12-13T02:41:11.574Z,1007.5
2017-12-13T02:41:52.043Z,1007.45
2017-12-13T02:42:32.560Z,1007.48
2017-12-13T02:43:13.073Z,1007.4
2017-12-13T02:43:53.596Z,1007.39
2017-12-13T02:44:34.105Z,1007.4
2017-12-13T02:45:14.615Z,1007.41
2017-12-13T02:45:55.117Z,1007.39
2017-12-13T02:46:35.646Z,1007.38
2017-12-13T02:47:16.146Z,1007.35
2017-12-13T02:47:56.624Z,1007.32
2017-12-13T02:48:37.148Z,1007.34
2017-12-13T02:49:17.643Z,1007.34
2017-12-13T02:49:58.158Z,1007.34
2017-12-13T02:50:38.653Z,1007.31
2017-12-13T02:51:19.164Z,1007.34
2017-12-13T02:51:59.654Z,1007.32
2017-12-13T02:52:40.160Z,1007.35
2017-12-13T02:53:20.715Z,1007.32
2017-12-13T02:54:01.228Z,1007.34
2017-12-13T02:54:41.737Z,1007.3
2017-12-13T02:55:22.250Z,1007.36
2017-12-13T02:56:02.760Z,1007.31
2017-12-13T02:56:43.288Z,1007.29
2017-12-13T02:57:23.813Z,1007.25
2017-12-13T02:58:04.309Z,1007.24
2017-12-13T02:58:44.823Z,1007.22
2017-12-13T02:59:25.329Z,1007.18
2017-12-13T03:00:05.838Z,1007.22
2017-12-13T03:00:46.361Z,1007.19
2017-12-13T03:01:26.860Z,1007.22
2017-12-13T03:02:07.371Z,1007.18
2017-12-13T03:02:47.860Z,1007.12
2017-12-13T03:03:28.386Z,1007.11
2017-12-13T03:04:08.891Z,1007.05
2017-12-13T03:04:49.412Z,1007.03
2017-12-13T03:05:29.914Z,1007.01
2017-12-13T03:06:10.456Z,1007.03
2017-12-13T03:06:50.950Z,1006.97
2017-12-13T03:07:31.457Z,1006.94
2017-12-13T03:08:11.999Z,1006.96
2017-12-13T03:08:52.485Z,1006.91
2017-12-13T03:09:32.998Z,1006.98
2017-12-13T03:10:13.508Z,1006.96
2017-12-13T03:10:54.017Z,1006.95
2017-12-13T03:11:34.533Z,1006.96
2017-12-13T03:12:15.057Z,1006.99
2017-12-13T03:12:55.587Z,1006.92
2017-12-13T03:13:36.083Z,1006.93
2017-12-13T03:14:16.573Z,1006.9
2017-12-13T03:14:57.078Z,1006.87
2017-12-13T03:15:37.580Z,1006.88
2017-12-13T03:16:18.080Z,1006.84
2017-12-13T03:16:58.585Z,1006.84
2017-12-13T03:17:39.087Z,1006.86
2017-12-13T03:18:19.600Z,1006.81
2017-12-13T03:19:00.116Z,1006.83
2017-12-13T03:19:40.645Z,1006.86
2017-12-13T03:20:21.151Z,1006.87
2017-12-13T03:21:01.651Z,1006.82
2017-12-13T03:21:42.175Z,1006.85
2017-12-13T03:22:22.686Z,1006.82
2017-12-13T03:23:03.225Z,1006.81
2017-12-13T03:23:43.738Z,1006.79
2017-12-13T03:24:24.243Z,1006.71
2017-12-13T03:25:04.750Z,1006.75
2017-12-13T03:25:45.251Z,1006.75
2017-12-13T03:26:25.757Z,1006.77
2017-12-13T03:27:06.275Z,1006.77
2017-12-13T03:27:46.794Z,1006.73
2017-12-13T03:28:27.303Z,1006.69
2017-12-13T03:29:07.813Z,1006.71
2017-12-13T03:29:48.307Z,1006.69
2017-12-13T03:30:28.843Z,1006.66
2017-12-13T03:31:09.352Z,1006.7
2017-12-13T03:31:49.863Z,1006.63
2017-12-13T03:32:30.389Z,1006.65
2017-12-13T03:33:10.900Z,1006.66
2017-12-13T03:33:51.414Z,1006.68
2017-12-13T03:34:31.942Z,1006.71
2017-12-13T03:35:12.450Z,1006.77
2017-12-13T03:35:52.963Z,1006.79
2017-12-13T03:36:33.537Z,1006.85
2017-12-13T03:37:14.060Z,1006.83
2017-12-13T03:37:54.569Z,1006.8
2017-12-13T03:38:35.057Z,1006.72
2017-12-13T03:39:15.550Z,1006.75
2017-12-13T03:39:56.071Z,1006.68
2017-12-13T03:40:36.570Z,1006.69
2017-12-13T03:41:17.083Z,1006.64
2017-12-13T03:41:57.606Z,1006.59
2017-12-13T03:42:38.125Z,1006.48
2017-12-13T03:43:18.653Z,1006.49
2017-12-13T03:43:59.181Z,1006.46
2017-12-13T03:44:39.710Z,1006.45
2017-12-13T03:45:20.207Z,1006.47
2017-12-13T03:46:00.736Z,1006.42
2017-12-13T03:46:41.257Z,1006.36
2017-12-13T03:47:21.757Z,1006.36
2017-12-13T03:48:02.251Z,1006.35
2017-12-13T03:48:42.773Z,1006.36
